Terminal Aerodrome Forecast
Issued by NWS Huntsville, AL

Home | Current Version | Previous Version | Text Only | Print | Product List | Glossary On
Versions: 1 2 3 4 5 6 7 8 9 10 11 12 13 14 15 16 17 18 19 20 21 22 23
000
FTUS44 KHUN 231138
TAFMSL
TAF
KMSL 231138Z 2312/2412 12012G17KT P6SM VCSH OVC020
     FM231500 14015G20KT 6SM -SHRA OVC030
     FM232100 20014G18KT 6SM BR VCSH OVC010
     FM240500 22012G16KT P6SM BKN030=

USA.gov is the U.S. government's official web portal to all federal, state and local government web resources and services.